Creek Data

    Home     View Charts     View Raw Data     Messages

ID Distance Battery Voltage Battery Current Internal Temp Internal Humidity External Temp Solar Input rssi snr Time Stamp Record
35414 15.3 4.02 5 42 36 50 5.1 -76 8 03/19/2025 08:45 AM 17176
35413 15.3 4.02 5 39 37 48 5.1 -76 8 03/19/2025 08:30 AM 17175
35412 15.2 4.07 19 37 37 41 4.5 -77 8 03/19/2025 08:15 AM 17174
35411 15.3 4.00 15 36 37 38 4.5 -76 9 03/19/2025 08:00 AM 17173
35410 15.2 4.03 10 34 38 38 4.5 -76 9 03/19/2025 07:45 AM 17172
35409 15.2 4.00 0 33 38 36 4.5 -76 8 03/19/2025 07:30 AM 17171
35408 15.3 3.93 -29 32 39 36 4.5 -76 9 03/19/2025 07:15 AM 17170
35407 15.2 3.94 -5 32 39 35 0.9 -76 8 03/19/2025 07:00 AM 17169
35406 15.2 4.00 -5 32 39 35 0 -76 8 03/19/2025 06:45 AM 17168
35405 15.2 4.00 -5 32 39 35 0 -76 8 03/19/2025 06:30 AM 17167
35404 15.2 3.94 -5 32 39 35 0 -75 8 03/19/2025 06:15 AM 17166
35403 15.2 3.95 -5 32 39 35 0 -75 8 03/19/2025 06:00 AM 17165
35402 15.2 3.95 -5 32 39 35 0 -76 8 03/19/2025 05:45 AM 17164
35401 15.3 3.95 -5 32 39 34 0 -77 8 03/19/2025 05:30 AM 17163
35400 15.2 3.95 -5 33 39 35 0 -78 8 03/19/2025 05:15 AM 17162
35399 15.2 3.95 -5 33 39 35 0 -79 8 03/19/2025 05:00 AM 17161
35398 15.2 3.95 -5 34 39 35 0.1 -78 8 03/19/2025 04:45 AM 17160
35397 0.0 4.01 -5 34 39 36 0 -78 8 03/19/2025 04:31 AM 17159
35396 0.0 4.01 -5 35 38 36 0 -78 7 03/19/2025 04:15 AM 17158
35395 0.0 4.01 -5 35 39 37 0 -78 8 03/19/2025 04:01 AM 17157
35394 0.0 4.01 -5 34 39 38 0 -77 9 03/19/2025 03:45 AM 17156
35393 0.0 3.95 -5 34 39 37 0.1 -77 9 03/19/2025 03:31 AM 17155
35392 0.0 3.95 -5 34 39 36 0 -77 8 03/19/2025 03:15 AM 17154
35391 0.0 3.95 -5 34 39 38 0 -76 8 03/19/2025 03:00 AM 17153
35390 0.0 4.01 -5 34 39 38 0 -77 8 03/19/2025 02:45 AM 17152